sensor_id;sensor_type;location;lat;lon;timestamp;pressure;altitude;pressure_sealevel;temperature;humidity
10079;BME280;5078;42.544;22.966;2023-02-20T00:01:52;94210.06;;;8.97;75.41
10079;BME280;5078;42.544;22.966;2023-02-20T00:04:20;94228.63;;;9.05;75.69
10079;BME280;5078;42.544;22.966;2023-02-20T00:06:47;94235.59;;;9.06;75.72
10079;BME280;5078;42.544;22.966;2023-02-20T00:09:14;94230.28;;;9.06;75.60
10079;BME280;5078;42.544;22.966;2023-02-20T00:11:40;94238.91;;;9.09;76.31
10079;BME280;5078;42.544;22.966;2023-02-20T00:14:07;94242.38;;;9.09;76.06
10079;BME280;5078;42.544;22.966;2023-02-20T00:16:35;94247.69;;;9.17;75.65
10079;BME280;5078;42.544;22.966;2023-02-20T00:19:02;94248.63;;;9.08;75.95
10079;BME280;5078;42.544;22.966;2023-02-20T00:21:30;94258.78;;;9.21;75.84
10079;BME280;5078;42.544;22.966;2023-02-20T00:23:56;94264.63;;;9.33;74.64
10079;BME280;5078;42.544;22.966;2023-02-20T00:26:23;94259.81;;;9.28;74.93
10079;BME280;5078;42.544;22.966;2023-02-20T00:28:50;94257.00;;;9.21;75.14
10079;BME280;5078;42.544;22.966;2023-02-20T00:31:17;94262.44;;;9.20;74.99
10079;BME280;5078;42.544;22.966;2023-02-20T00:33:46;94257.47;;;9.17;75.38
10079;BME280;5078;42.544;22.966;2023-02-20T00:36:17;94273.47;;;9.15;75.74
10079;BME280;5078;42.544;22.966;2023-02-20T00:38:45;94220.84;;;9.04;75.01
10079;BME280;5078;42.544;22.966;2023-02-20T00:41:12;94257.59;;;9.15;75.75
10079;BME280;5078;42.544;22.966;2023-02-20T00:43:40;94250.59;;;9.06;76.20
10079;BME280;5078;42.544;22.966;2023-02-20T00:46:10;94252.41;;;9.05;76.86
10079;BME280;5078;42.544;22.966;2023-02-20T00:48:37;94237.00;;;9.01;77.94
10079;BME280;5078;42.544;22.966;2023-02-20T00:51:05;94227.91;;;8.95;77.66
10079;BME280;5078;42.544;22.966;2023-02-20T00:53:32;94223.53;;;8.86;78.66
10079;BME280;5078;42.544;22.966;2023-02-20T00:55:58;94240.19;;;8.78;79.19
10079;BME280;5078;42.544;22.966;2023-02-20T00:58:25;94240.88;;;8.54;80.43
10079;BME280;5078;42.544;22.966;2023-02-20T01:00:52;94243.50;;;8.36;82.80
10079;BME280;5078;42.544;22.966;2023-02-20T01:03:19;94249.31;;;8.58;82.32
10079;BME280;5078;42.544;22.966;2023-02-20T01:05:45;94244.09;;;8.30;83.37
10079;BME280;5078;42.544;22.966;2023-02-20T01:08:13;94255.03;;;8.35;83.72
10079;BME280;5078;42.544;22.966;2023-02-20T01:10:40;94256.44;;;8.21;85.60
10079;BME280;5078;42.544;22.966;2023-02-20T01:13:07;94256.50;;;8.12;86.83
10079;BME280;5078;42.544;22.966;2023-02-20T01:15:34;94270.00;;;8.09;87.59
10079;BME280;5078;42.544;22.966;2023-02-20T01:18:00;94266.31;;;8.02;89.30
10079;BME280;5078;42.544;22.966;2023-02-20T01:20:27;94272.88;;;8.15;89.22
10079;BME280;5078;42.544;22.966;2023-02-20T01:22:54;94272.47;;;8.28;88.13
10079;BME280;5078;42.544;22.966;2023-02-20T01:25:22;94265.88;;;8.42;87.03
10079;BME280;5078;42.544;22.966;2023-02-20T01:27:49;94258.50;;;8.36;86.50
10079;BME280;5078;42.544;22.966;2023-02-20T01:30:16;94256.63;;;8.28;87.98
10079;BME280;5078;42.544;22.966;2023-02-20T01:32:42;94254.91;;;8.19;88.31
10079;BME280;5078;42.544;22.966;2023-02-20T01:35:31;94263.38;;;8.05;90.31
10079;BME280;5078;42.544;22.966;2023-02-20T01:37:58;94267.81;;;8.04;90.87
10079;BME280;5078;42.544;22.966;2023-02-20T01:40:31;94272.09;;;8.23;90.90
10079;BME280;5078;42.544;22.966;2023-02-20T01:42:58;94275.34;;;8.35;90.30
10079;BME280;5078;42.544;22.966;2023-02-20T01:45:34;94269.66;;;8.39;88.79
10079;BME280;5078;42.544;22.966;2023-02-20T01:48:01;94258.81;;;8.33;86.26
10079;BME280;5078;42.544;22.966;2023-02-20T01:50:31;94268.50;;;8.42;86.40
10079;BME280;5078;42.544;22.966;2023-02-20T01:53:02;94278.13;;;8.33;85.49
10079;BME280;5078;42.544;22.966;2023-02-20T01:55:36;94288.25;;;8.20;86.74
10079;BME280;5078;42.544;22.966;2023-02-20T01:58:07;94306.75;;;8.02;88.40
10079;BME280;5078;42.544;22.966;2023-02-20T02:00:36;94313.09;;;8.09;89.97
10079;BME280;5078;42.544;22.966;2023-02-20T02:03:05;94321.44;;;7.87;98.74
10079;BME280;5078;42.544;22.966;2023-02-20T02:05:33;94319.78;;;8.04;100.00
10079;BME280;5078;42.544;22.966;2023-02-20T02:08:02;94318.38;;;8.09;100.00
10079;BME280;5078;42.544;22.966;2023-02-20T02:10:34;94313.16;;;7.99;100.00
10079;BME280;5078;42.544;22.966;2023-02-20T02:13:03;94304.97;;;7.93;100.00
10079;BME280;5078;42.544;22.966;2023-02-20T02:15:29;94307.78;;;7.91;100.00
10079;BME280;5078;42.544;22.966;2023-02-20T02:18:08;94308.06;;;7.88;100.00
10079;BME280;5078;42.544;22.966;2023-02-20T02:21:08;94306.13;;;7.90;100.00
10079;BME280;5078;42.544;22.966;2023-02-20T02:24:16;94319.31;;;7.90;100.00
10079;BME280;5078;42.544;22.966;2023-02-20T02:27:08;94322.72;;;8.00;100.00
10079;BME280;5078;42.544;22.966;2023-02-20T02:29:55;94314.81;;;8.00;100.00
10079;BME280;5078;42.544;22.966;2023-02-20T02:38:30;94305.00;;;8.11;100.00
10079;BME280;5078;42.544;22.966;2023-02-20T02:41:03;94308.00;;;7.98;100.00
10079;BME280;5078;42.544;22.966;2023-02-20T02:43:38;94320.31;;;7.89;100.00
10079;BME280;5078;42.544;22.966;2023-02-20T02:46:12;94323.91;;;7.88;100.00
10079;BME280;5078;42.544;22.966;2023-02-20T02:48:46;94321.25;;;7.88;100.00
10079;BME280;5078;42.544;22.966;2023-02-20T02:51:19;94330.88;;;7.89;100.00
10079;BME280;5078;42.544;22.966;2023-02-20T02:54:09;94337.50;;;7.93;100.00
10079;BME280;5078;42.544;22.966;2023-02-20T02:56:39;94338.09;;;7.87;100.00
10079;BME280;5078;42.544;22.966;2023-02-20T02:59:08;94330.19;;;8.05;100.00
10079;BME280;5078;42.544;22.966;2023-02-20T03:01:41;94348.91;;;7.94;100.00
10079;BME280;5078;42.544;22.966;2023-02-20T03:04:10;94334.34;;;7.90;100.00
10079;BME280;5078;42.544;22.966;2023-02-20T03:06:41;94346.41;;;7.92;100.00
10079;BME280;5078;42.544;22.966;2023-02-20T03:09:13;94359.22;;;7.87;100.00
10079;BME280;5078;42.544;22.966;2023-02-20T03:11:41;94374.75;;;7.90;100.00
10079;BME280;5078;42.544;22.966;2023-02-20T03:14:11;94377.22;;;7.74;100.00
10079;BME280;5078;42.544;22.966;2023-02-20T03:17:01;94381.63;;;7.73;100.00
10079;BME280;5078;42.544;22.966;2023-02-20T03:19:34;94377.22;;;7.74;100.00
10079;BME280;5078;42.544;22.966;2023-02-20T03:22:06;94374.97;;;7.79;99.23
10079;BME280;5078;42.544;22.966;2023-02-20T03:24:37;94380.63;;;7.84;98.15
10079;BME280;5078;42.544;22.966;2023-02-20T03:27:21;94361.03;;;7.87;96.27
10079;BME280;5078;42.544;22.966;2023-02-20T03:29:51;94376.72;;;7.88;94.74
10079;BME280;5078;42.544;22.966;2023-02-20T03:32:21;94375.63;;;7.81;94.45
10079;BME280;5078;42.544;22.966;2023-02-20T03:35:08;94369.28;;;7.74;94.89
10079;BME280;5078;42.544;22.966;2023-02-20T03:37:54;94396.84;;;7.62;95.45
10079;BME280;5078;42.544;22.966;2023-02-20T03:40:41;94386.44;;;7.60;97.91
10079;BME280;5078;42.544;22.966;2023-02-20T03:43:26;94401.16;;;7.53;97.97
10079;BME280;5078;42.544;22.966;2023-02-20T03:45:59;94412.47;;;7.26;100.00
10079;BME280;5078;42.544;22.966;2023-02-20T03:48:31;94404.25;;;7.39;100.00
10079;BME280;5078;42.544;22.966;2023-02-20T03:50:59;94407.78;;;7.20;100.00
10079;BME280;5078;42.544;22.966;2023-02-20T03:53:44;94402.72;;;7.36;100.00
10079;BME280;5078;42.544;22.966;2023-02-20T03:56:15;94408.06;;;7.17;100.00
10079;BME280;5078;42.544;22.966;2023-02-20T03:58:48;94408.34;;;7.13;100.00
10079;BME280;5078;42.544;22.966;2023-02-20T04:01:19;94408.34;;;7.13;100.00
10079;BME280;5078;42.544;22.966;2023-02-20T04:03:48;94404.44;;;7.27;100.00
10079;BME280;5078;42.544;22.966;2023-02-20T04:06:18;94403.75;;;7.16;100.00
10079;BME280;5078;42.544;22.966;2023-02-20T04:08:49;94395.28;;;7.22;100.00
10079;BME280;5078;42.544;22.966;2023-02-20T04:11:22;94387.50;;;7.20;100.00
10079;BME280;5078;42.544;22.966;2023-02-20T04:13:52;94406.81;;;7.01;100.00
10079;BME280;5078;42.544;22.966;2023-02-20T04:16:20;94411.72;;;6.67;100.00
10079;BME280;5078;42.544;22.966;2023-02-20T04:18:48;94411.72;;;6.77;100.00
10079;BME280;5078;42.544;22.966;2023-02-20T04:21:19;94424.16;;;6.45;100.00
10079;BME280;5078;42.544;22.966;2023-02-20T04:24:00;94420.41;;;6.38;100.00
10079;BME280;5078;42.544;22.966;2023-02-20T04:26:29;94427.66;;;6.65;100.00
10079;BME280;5078;42.544;22.966;2023-02-20T04:28:56;94432.50;;;6.70;100.00
10079;BME280;5078;42.544;22.966;2023-02-20T04:31:23;94432.94;;;6.95;100.00
10079;BME280;5078;42.544;22.966;2023-02-20T04:33:50;94423.19;;;7.24;100.00
10079;BME280;5078;42.544;22.966;2023-02-20T04:36:17;94420.69;;;7.23;100.00
10079;BME280;5078;42.544;22.966;2023-02-20T04:38:43;94432.63;;;7.17;100.00
10079;BME280;5078;42.544;22.966;2023-02-20T04:41:10;94439.97;;;7.13;100.00
10079;BME280;5078;42.544;22.966;2023-02-20T04:43:38;94442.19;;;7.18;100.00
10079;BME280;5078;42.544;22.966;2023-02-20T04:46:05;94441.88;;;7.41;99.88
10079;BME280;5078;42.544;22.966;2023-02-20T04:48:32;94448.53;;;7.54;90.88
10079;BME280;5078;42.544;22.966;2023-02-20T04:50:58;94448.69;;;7.90;88.82
10079;BME280;5078;42.544;22.966;2023-02-20T04:53:25;94459.22;;;8.00;86.89
10079;BME280;5078;42.544;22.966;2023-02-20T04:55:52;94448.97;;;7.87;89.53
10079;BME280;5078;42.544;22.966;2023-02-20T04:58:18;94453.75;;;7.74;85.03
10079;BME280;5078;42.544;22.966;2023-02-20T05:00:47;94468.69;;;7.93;82.82
10079;BME280;5078;42.544;22.966;2023-02-20T05:03:13;94479.59;;;8.08;82.09
10079;BME280;5078;42.544;22.966;2023-02-20T05:05:40;94451.31;;;7.90;80.79
10079;BME280;5078;42.544;22.966;2023-02-20T05:08:07;94462.63;;;8.10;79.71
10079;BME280;5078;42.544;22.966;2023-02-20T05:10:35;94465.97;;;8.12;77.89
10079;BME280;5078;42.544;22.966;2023-02-20T05:13:02;94474.91;;;8.02;78.09
10079;BME280;5078;42.544;22.966;2023-02-20T05:15:30;94485.59;;;8.10;77.81
10079;BME280;5078;42.544;22.966;2023-02-20T05:17:58;94484.81;;;7.90;78.62
10079;BME280;5078;42.544;22.966;2023-02-20T05:20:25;94482.72;;;7.93;78.89
10079;BME280;5078;42.544;22.966;2023-02-20T05:23:05;94495.91;;;7.46;83.58
10079;BME280;5078;42.544;22.966;2023-02-20T05:25:32;94474.22;;;7.43;83.02
10079;BME280;5078;42.544;22.966;2023-02-20T05:27:59;94487.44;;;7.33;82.92
10079;BME280;5078;42.544;22.966;2023-02-20T05:30:25;94479.00;;;7.20;84.26
10079;BME280;5078;42.544;22.966;2023-02-20T05:32:52;94483.16;;;7.32;84.46
10079;BME280;5078;42.544;22.966;2023-02-20T05:35:20;94481.91;;;7.17;84.31
10079;BME280;5078;42.544;22.966;2023-02-20T05:37:47;94495.22;;;7.15;84.94
10079;BME280;5078;42.544;22.966;2023-02-20T05:40:14;94502.97;;;7.36;84.29
10079;BME280;5078;42.544;22.966;2023-02-20T05:42:40;94513.28;;;7.39;83.71
10079;BME280;5078;42.544;22.966;2023-02-20T05:45:07;94504.91;;;7.53;82.97
10079;BME280;5078;42.544;22.966;2023-02-20T05:47:35;94511.16;;;7.43;82.95
10079;BME280;5078;42.544;22.966;2023-02-20T05:50:02;94507.53;;;7.63;82.31
10079;BME280;5078;42.544;22.966;2023-02-20T05:52:31;94504.03;;;7.82;81.58
10079;BME280;5078;42.544;22.966;2023-02-20T05:54:57;94512.22;;;7.89;80.08
10079;BME280;5078;42.544;22.966;2023-02-20T05:57:24;94511.09;;;7.91;80.22
10079;BME280;5078;42.544;22.966;2023-02-20T05:59:51;94524.78;;;8.05;78.98
10079;BME280;5078;42.544;22.966;2023-02-20T06:02:17;94536.09;;;7.97;77.57
10079;BME280;5078;42.544;22.966;2023-02-20T06:04:44;94528.06;;;7.89;78.10
10079;BME280;5078;42.544;22.966;2023-02-20T06:07:11;94543.63;;;7.82;78.11
10079;BME280;5078;42.544;22.966;2023-02-20T06:09:43;94545.19;;;8.22;77.63
10079;BME280;5078;42.544;22.966;2023-02-20T06:12:10;94559.53;;;8.57;74.80
10079;BME280;5078;42.544;22.966;2023-02-20T06:14:37;94562.56;;;8.62;73.24
10079;BME280;5078;42.544;22.966;2023-02-20T06:17:03;94569.81;;;8.60;70.67
10079;BME280;5078;42.544;22.966;2023-02-20T06:19:30;94557.56;;;8.87;68.74
10079;BME280;5078;42.544;22.966;2023-02-20T06:21:57;94560.50;;;9.29;66.65
10079;BME280;5078;42.544;22.966;2023-02-20T06:24:24;94564.03;;;9.38;65.64
10079;BME280;5078;42.544;22.966;2023-02-20T06:26:52;94560.31;;;8.95;67.85
10079;BME280;5078;42.544;22.966;2023-02-20T06:29:19;94565.47;;;9.14;67.20
10079;BME280;5078;42.544;22.966;2023-02-20T06:31:46;94559.16;;;8.97;69.22
10079;BME280;5078;42.544;22.966;2023-02-20T06:34:13;94554.94;;;9.04;68.20
10079;BME280;5078;42.544;22.966;2023-02-20T06:36:40;94568.63;;;9.18;67.04
10079;BME280;5078;42.544;22.966;2023-02-20T06:39:09;94569.31;;;9.02;69.29
10079;BME280;5078;42.544;22.966;2023-02-20T06:41:36;94554.94;;;9.04;68.44
10079;BME280;5078;42.544;22.966;2023-02-20T06:44:04;94571.00;;;9.39;67.77
10079;BME280;5078;42.544;22.966;2023-02-20T06:46:31;94571.91;;;9.47;66.09
10079;BME280;5078;42.544;22.966;2023-02-20T06:48:58;94575.47;;;9.56;65.80
10079;BME280;5078;42.544;22.966;2023-02-20T06:51:27;94580.66;;;9.66;61.94
10079;BME280;5078;42.544;22.966;2023-02-20T06:53:54;94579.16;;;9.63;60.60
10079;BME280;5078;42.544;22.966;2023-02-20T06:56:24;94556.91;;;9.38;60.50
10079;BME280;5078;42.544;22.966;2023-02-20T06:58:52;94580.78;;;9.56;60.44
10079;BME280;5078;42.544;22.966;2023-02-20T07:01:22;94579.91;;;9.56;57.93
10079;BME280;5078;42.544;22.966;2023-02-20T07:03:51;94573.56;;;10.28;56.16
10079;BME280;5078;42.544;22.966;2023-02-20T07:06:19;94552.97;;;10.91;52.54
10079;BME280;5078;42.544;22.966;2023-02-20T07:08:46;94572.81;;;11.37;50.97
10079;BME280;5078;42.544;22.966;2023-02-20T07:11:16;94577.09;;;11.22;50.87
10079;BME280;5078;42.544;22.966;2023-02-20T07:13:43;94568.13;;;11.15;49.83
10079;BME280;5078;42.544;22.966;2023-02-20T07:16:10;94568.56;;;11.69;48.81
10079;BME280;5078;42.544;22.966;2023-02-20T07:18:38;94578.06;;;12.04;47.56
10079;BME280;5078;42.544;22.966;2023-02-20T07:21:05;94565.06;;;12.18;47.58
10079;BME280;5078;42.544;22.966;2023-02-20T07:23:32;94571.72;;;12.22;46.86
10079;BME280;5078;42.544;22.966;2023-02-20T07:25:58;94562.25;;;12.19;46.00
10079;BME280;5078;42.544;22.966;2023-02-20T07:28:25;94567.91;;;12.08;46.22
10079;BME280;5078;42.544;22.966;2023-02-20T07:30:52;94569.03;;;12.46;45.12
10079;BME280;5078;42.544;22.966;2023-02-20T07:33:19;94576.75;;;12.81;44.08
10079;BME280;5078;42.544;22.966;2023-02-20T07:35:47;94572.44;;;12.71;43.94
10079;BME280;5078;42.544;22.966;2023-02-20T07:38:13;94574.94;;;12.73;43.40
10079;BME280;5078;42.544;22.966;2023-02-20T07:40:40;94568.97;;;13.10;43.47
10079;BME280;5078;42.544;22.966;2023-02-20T07:43:07;94550.66;;;13.07;42.70
10079;BME280;5078;42.544;22.966;2023-02-20T07:45:34;94569.75;;;12.24;43.64
10079;BME280;5078;42.544;22.966;2023-02-20T07:48:02;94568.28;;;12.77;43.08
10079;BME280;5078;42.544;22.966;2023-02-20T07:50:29;94571.97;;;13.07;41.95
10079;BME280;5078;42.544;22.966;2023-02-20T07:52:57;94568.84;;;12.48;42.07
10079;BME280;5078;42.544;22.966;2023-02-20T07:55:24;94557.25;;;12.33;42.90
10079;BME280;5078;42.544;22.966;2023-02-20T07:57:51;94565.06;;;12.34;42.95
10079;BME280;5078;42.544;22.966;2023-02-20T08:00:23;94561.53;;;12.50;42.91
10079;BME280;5078;42.544;22.966;2023-02-20T08:02:49;94572.25;;;12.09;43.28
10079;BME280;5078;42.544;22.966;2023-02-20T08:05:16;94575.19;;;11.65;44.14
10079;BME280;5078;42.544;22.966;2023-02-20T08:07:44;94582.69;;;11.86;44.54
10079;BME280;5078;42.544;22.966;2023-02-20T08:10:13;94582.03;;;11.92;43.73
10079;BME280;5078;42.544;22.966;2023-02-20T08:12:40;94572.34;;;12.48;43.48
10079;BME280;5078;42.544;22.966;2023-02-20T08:15:07;94566.50;;;12.61;42.10
10079;BME280;5078;42.544;22.966;2023-02-20T08:17:36;94573.28;;;13.11;41.86
10079;BME280;5078;42.544;22.966;2023-02-20T08:20:03;94568.66;;;13.05;41.67
10079;BME280;5078;42.544;22.966;2023-02-20T08:22:30;94563.69;;;13.02;41.22
10079;BME280;5078;42.544;22.966;2023-02-20T08:24:57;94572.28;;;13.12;42.06
10079;BME280;5078;42.544;22.966;2023-02-20T08:27:25;94572.19;;;13.60;41.02
10079;BME280;5078;42.544;22.966;2023-02-20T08:29:52;94570.56;;;13.59;41.51
10079;BME280;5078;42.544;22.966;2023-02-20T08:32:19;94577.66;;;13.90;40.94
10079;BME280;5078;42.544;22.966;2023-02-20T08:34:46;94570.44;;;13.52;40.51
10079;BME280;5078;42.544;22.966;2023-02-20T08:37:12;94575.97;;;13.74;40.74
10079;BME280;5078;42.544;22.966;2023-02-20T08:39:39;94574.59;;;13.78;40.69
10079;BME280;5078;42.544;22.966;2023-02-20T08:42:06;94571.94;;;13.78;40.58
10079;BME280;5078;42.544;22.966;2023-02-20T08:44:34;94578.03;;;13.87;39.97
10079;BME280;5078;42.544;22.966;2023-02-20T08:47:01;94574.78;;;13.45;40.77
10079;BME280;5078;42.544;22.966;2023-02-20T08:49:27;94559.72;;;13.61;40.89
10079;BME280;5078;42.544;22.966;2023-02-20T08:51:55;94571.28;;;13.99;40.42
10079;BME280;5078;42.544;22.966;2023-02-20T08:54:22;94563.78;;;14.32;39.54
10079;BME280;5078;42.544;22.966;2023-02-20T08:56:49;94553.03;;;14.63;38.71
10079;BME280;5078;42.544;22.966;2023-02-20T08:59:16;94559.81;;;14.13;38.91
10079;BME280;5078;42.544;22.966;2023-02-20T09:01:44;94552.06;;;14.03;39.33
10079;BME280;5078;42.544;22.966;2023-02-20T09:04:10;94550.13;;;13.74;39.25
10079;BME280;5078;42.544;22.966;2023-02-20T09:06:37;94555.00;;;13.71;39.58
10079;BME280;5078;42.544;22.966;2023-02-20T09:09:04;94543.88;;;14.05;39.56
10079;BME280;5078;42.544;22.966;2023-02-20T09:11:30;94533.94;;;13.30;39.75
10079;BME280;5078;42.544;22.966;2023-02-20T09:13:57;94528.97;;;13.50;39.60
10079;BME280;5078;42.544;22.966;2023-02-20T09:16:24;94527.59;;;13.00;39.94
10079;BME280;5078;42.544;22.966;2023-02-20T09:18:53;94538.34;;;13.46;39.54
10079;BME280;5078;42.544;22.966;2023-02-20T09:21:20;94529.78;;;13.58;40.11
10079;BME280;5078;42.544;22.966;2023-02-20T09:23:47;94532.41;;;13.81;39.96
10079;BME280;5078;42.544;22.966;2023-02-20T09:26:13;94528.69;;;14.43;39.05
10079;BME280;5078;42.544;22.966;2023-02-20T09:28:40;94536.00;;;14.12;39.07
10079;BME280;5078;42.544;22.966;2023-02-20T09:31:07;94539.06;;;14.38;37.82
10079;BME280;5078;42.544;22.966;2023-02-20T09:33:34;94543.00;;;13.90;38.02
10079;BME280;5078;42.544;22.966;2023-02-20T09:36:02;94540.72;;;13.64;38.47
10079;BME280;5078;42.544;22.966;2023-02-20T09:38:29;94533.47;;;13.95;38.66
10079;BME280;5078;42.544;22.966;2023-02-20T09:40:58;94542.06;;;14.06;38.25
10079;BME280;5078;42.544;22.966;2023-02-20T09:43:38;94540.72;;;14.39;38.67
10079;BME280;5078;42.544;22.966;2023-02-20T09:46:11;94535.59;;;14.82;37.39
10079;BME280;5078;42.544;22.966;2023-02-20T09:48:52;94544.25;;;14.55;37.51
10079;BME280;5078;42.544;22.966;2023-02-20T09:51:24;94544.84;;;13.89;38.43
10079;BME280;5078;42.544;22.966;2023-02-20T09:53:56;94540.03;;;14.22;37.99
10079;BME280;5078;42.544;22.966;2023-02-20T09:56:27;94543.00;;;14.28;38.04
10079;BME280;5078;42.544;22.966;2023-02-20T09:58:57;94545.75;;;13.81;37.78
10079;BME280;5078;42.544;22.966;2023-02-20T10:01:27;94541.81;;;13.92;37.94
10079;BME280;5078;42.544;22.966;2023-02-20T10:03:56;94539.66;;;13.73;38.09
10079;BME280;5078;42.544;22.966;2023-02-20T10:06:27;94552.13;;;13.49;37.99
10079;BME280;5078;42.544;22.966;2023-02-20T10:08:55;94555.69;;;13.65;38.66
10079;BME280;5078;42.544;22.966;2023-02-20T10:11:35;94569.25;;;14.01;37.32
10079;BME280;5078;42.544;22.966;2023-02-20T10:14:23;94562.13;;;13.47;37.97
10079;BME280;5078;42.544;22.966;2023-02-20T10:16:58;94556.88;;;12.52;39.15
10079;BME280;5078;42.544;22.966;2023-02-20T10:19:33;94557.63;;;13.16;39.05
10079;BME280;5078;42.544;22.966;2023-02-20T10:22:08;94559.72;;;12.90;39.01
10079;BME280;5078;42.544;22.966;2023-02-20T10:24:45;94551.59;;;13.23;38.83
10079;BME280;5078;42.544;22.966;2023-02-20T10:27:22;94545.88;;;13.03;39.45
10079;BME280;5078;42.544;22.966;2023-02-20T10:29:52;94540.53;;;13.03;39.30
10079;BME280;5078;42.544;22.966;2023-02-20T10:32:22;94538.06;;;13.41;38.50
10079;BME280;5078;42.544;22.966;2023-02-20T10:34:56;94537.84;;;13.42;37.82
10079;BME280;5078;42.544;22.966;2023-02-20T10:37:28;94530.53;;;13.44;38.69
10079;BME280;5078;42.544;22.966;2023-02-20T10:40:02;94530.69;;;13.43;38.30
10079;BME280;5078;42.544;22.966;2023-02-20T10:42:35;94517.16;;;12.90;38.62
10079;BME280;5078;42.544;22.966;2023-02-20T10:45:07;94512.63;;;13.30;38.16
10079;BME280;5078;42.544;22.966;2023-02-20T10:47:39;94509.63;;;13.25;38.46
10079;BME280;5078;42.544;22.966;2023-02-20T10:50:14;94527.69;;;13.46;38.14
10079;BME280;5078;42.544;22.966;2023-02-20T10:52:47;94513.66;;;13.29;37.96
10079;BME280;5078;42.544;22.966;2023-02-20T10:55:18;94518.44;;;13.56;37.56
10079;BME280;5078;42.544;22.966;2023-02-20T10:57:49;94499.69;;;13.19;37.35
10079;BME280;5078;42.544;22.966;2023-02-20T11:00:21;94505.50;;;13.53;37.08
10079;BME280;5078;42.544;22.966;2023-02-20T11:02:53;94507.34;;;13.22;38.00
10079;BME280;5078;42.544;22.966;2023-02-20T11:05:24;94503.28;;;13.57;37.44
10079;BME280;5078;42.544;22.966;2023-02-20T11:07:54;94492.16;;;13.76;37.41
10079;BME280;5078;42.544;22.966;2023-02-20T11:10:21;94500.06;;;13.15;38.07
10079;BME280;5078;42.544;22.966;2023-02-20T11:12:49;94499.69;;;13.19;37.95
10079;BME280;5078;42.544;22.966;2023-02-20T11:15:20;94491.31;;;13.30;37.95
10079;BME280;5078;42.544;22.966;2023-02-20T11:17:49;94480.69;;;13.30;38.23
10079;BME280;5078;42.544;22.966;2023-02-20T11:20:42;94469.84;;;13.00;37.95
10079;BME280;5078;42.544;22.966;2023-02-20T11:23:33;94461.78;;;12.85;38.30
10079;BME280;5078;42.544;22.966;2023-02-20T11:26:24;94476.41;;;13.21;38.29
10079;BME280;5078;42.544;22.966;2023-02-20T11:29:02;94474.09;;;12.86;38.27
10079;BME280;5078;42.544;22.966;2023-02-20T11:31:31;94475.16;;;13.00;38.16
10079;BME280;5078;42.544;22.966;2023-02-20T11:34:00;94480.38;;;12.93;37.73
10079;BME280;5078;42.544;22.966;2023-02-20T11:36:31;94481.03;;;13.27;38.14
10079;BME280;5078;42.544;22.966;2023-02-20T11:39:03;94498.19;;;13.47;38.00
10079;BME280;5078;42.544;22.966;2023-02-20T11:41:38;94493.66;;;13.56;36.90
10079;BME280;5078;42.544;22.966;2023-02-20T11:44:17;94504.06;;;13.43;36.97
10079;BME280;5078;42.544;22.966;2023-02-20T11:46:45;94507.72;;;13.65;36.61
10079;BME280;5078;42.544;22.966;2023-02-20T11:49:23;94503.09;;;13.04;36.71
10079;BME280;5078;42.544;22.966;2023-02-20T11:51:50;94499.22;;;12.84;37.53
10079;BME280;5078;42.544;22.966;2023-02-20T11:54:19;94494.16;;;12.97;37.27
10079;BME280;5078;42.544;22.966;2023-02-20T11:56:54;94499.69;;;12.56;37.11
10079;BME280;5078;42.544;22.966;2023-02-20T11:59:30;94501.06;;;12.83;37.21
10079;BME280;5078;42.544;22.966;2023-02-20T12:02:12;94488.59;;;12.84;37.37
10079;BME280;5078;42.544;22.966;2023-02-20T12:04:59;94471.34;;;12.71;37.14
10079;BME280;5078;42.544;22.966;2023-02-20T12:07:35;94485.56;;;12.87;37.03
10079;BME280;5078;42.544;22.966;2023-02-20T12:10:12;94489.78;;;13.04;37.16
10079;BME280;5078;42.544;22.966;2023-02-20T12:12:41;94489.25;;;12.86;37.21
10079;BME280;5078;42.544;22.966;2023-02-20T12:15:12;94479.59;;;12.85;37.30
10079;BME280;5078;42.544;22.966;2023-02-20T12:17:49;94485.00;;;12.60;37.76
10079;BME280;5078;42.544;22.966;2023-02-20T12:20:21;94491.72;;;12.48;37.65
10079;BME280;5078;42.544;22.966;2023-02-20T12:22:55;94492.44;;;12.34;37.98
10079;BME280;5078;42.544;22.966;2023-02-20T12:25:32;94486.06;;;12.51;38.25
10079;BME280;5078;42.544;22.966;2023-02-20T12:28:08;94490.06;;;12.47;37.87
10079;BME280;5078;42.544;22.966;2023-02-20T12:30:46;94494.72;;;12.45;37.78
10079;BME280;5078;42.544;22.966;2023-02-20T12:33:40;94469.81;;;12.46;38.09
10079;BME280;5078;42.544;22.966;2023-02-20T12:36:20;94481.13;;;12.32;38.21
10079;BME280;5078;42.544;22.966;2023-02-20T12:38:57;94490.13;;;12.30;38.17
10079;BME280;5078;42.544;22.966;2023-02-20T12:41:31;94478.88;;;12.04;38.36
10079;BME280;5078;42.544;22.966;2023-02-20T12:44:11;94487.97;;;12.18;38.56
10079;BME280;5078;42.544;22.966;2023-02-20T12:46:52;94468.22;;;12.12;38.96
10079;BME280;5078;42.544;22.966;2023-02-20T12:49:39;94472.03;;;12.18;39.01
10079;BME280;5078;42.544;22.966;2023-02-20T12:52:33;94460.75;;;12.16;39.22
10079;BME280;5078;42.544;22.966;2023-02-20T12:55:10;94466.09;;;11.75;39.87
10079;BME280;5078;42.544;22.966;2023-02-20T12:57:49;94464.94;;;11.77;39.93
10079;BME280;5078;42.544;22.966;2023-02-20T13:00:27;94469.94;;;11.89;40.39
10079;BME280;5078;42.544;22.966;2023-02-20T13:02:59;94460.44;;;12.11;39.57
10079;BME280;5078;42.544;22.966;2023-02-20T13:05:29;94483.84;;;12.07;39.59
10079;BME280;5078;42.544;22.966;2023-02-20T13:07:59;94470.94;;;11.79;39.80
10079;BME280;5078;42.544;22.966;2023-02-20T13:10:31;94486.19;;;12.02;40.21
10079;BME280;5078;42.544;22.966;2023-02-20T13:13:00;94479.91;;;11.78;40.55
10079;BME280;5078;42.544;22.966;2023-02-20T13:15:35;94488.69;;;12.03;40.21
10079;BME280;5078;42.544;22.966;2023-02-20T13:18:11;94496.00;;;11.69;40.44
10079;BME280;5078;42.544;22.966;2023-02-20T13:20:44;94497.81;;;11.27;40.82
10079;BME280;5078;42.544;22.966;2023-02-20T13:23:26;94490.66;;;11.19;41.46
10079;BME280;5078;42.544;22.966;2023-02-20T13:25:55;94486.88;;;11.47;41.35
10079;BME280;5078;42.544;22.966;2023-02-20T13:28:27;94490.88;;;11.59;41.17
10079;BME280;5078;42.544;22.966;2023-02-20T13:31:10;94488.19;;;11.75;41.15